KRNTKPAE

Guest
Details From KRNT - Renton Muni
To KPAE - SNOHOMISH CO
Flight Number -
Tags generated
Created
Modified
Stats Distance 27 nm / 49 km
Max Altitude 100 ft / 30 m
Waypoints 3
Social Downloads 0
Likes 0
Share VATSIM

Download

Looking for another format? Having issues loading an existing format? Contact us
Advertisement - Login to hide

Notes

Basic altitude profile: - Ascent Rate: 2500ft/min - Ascent Speed: 250kts - Cruise Altitude: 35000ft - Cruise Speed: 420kts - Descent Rate: 1500ft/min - Descent Speed: 250kts Options: - Use NATs: yes - Use PACOTS: yes - Use low airways: yes - Use high airways: yes

Route

KRNT PAE KPAE

ID Type Via Altitude Latitude Longitude Leg Dist Tot Dist Heading (true) Name
O KRNT APT - 0 ft / 0 m 47.49313˚ -122.21574˚ - 0 nm - Renton Muni
PAE VOR - 100 ft / 30 m 47.91983˚ -122.27783˚ 25 nm 25 nm 354° / 354° PAINE VOR-DME
O KPAE APT - 0 ft / 0 m 47.90598˚ -122.27914˚ 0 nm 26 nm 184° / 184° SNOHOMISH CO

Altitude Profile

Advertisement - Login to hide

KRNT

Details ICAO KRNT (RNT)
Name Renton Muni
Region United States
Timezone America/Los_Angeles (UTC-8.0)
Stats Elevation 32 ft / 10 m (AMSL)
Location 47.493133° -122.215743°
Runways 1
Magnetic Variation 15.677° E

METAR

KRNT 150953Z AUTO 00000KT 10SM SCT100 03/02 A3021 RMK AO2 SLP235 T00280017 $

Decode

TAF

Not found

Departure Runways

ID Width Length Bearing (true) Bearing (mag) Surface Threshold Offset Overrun Length
16 200 ft / 61 m 5,384 ft / 1,641 m 174.16° 158.48° Asphalt 299 ft / 91 m 0 ft / 0 m
34 200 ft / 61 m 5,384 ft / 1,641 m 354.17° 338.49° Asphalt 341 ft / 104 m 210 ft / 64 m

KPAE

Details ICAO KPAE (PAE)
Name SNOHOMISH CO
Region United States
Timezone America/Los_Angeles (UTC-8.0)
Stats Elevation 606 ft / 185 m (AMSL)
Location 47.905980° -122.279142°
Runways 3
Magnetic Variation 15.788° E

METAR

KPAE 150953Z AUTO 13005KT 10SM OVC085 04/00 A3020 RMK AO2 SLP231 T00440000

Decode

TAF

TAF KPAE 150520Z 1506/1606 16005KT P6SM OVC150 FM151300 17006KT P6SM SCT025 OVC040 FM151600 17007KT P6SM -RA BKN020 OVC035 FM151800 18008KT P6SM -SHRA OVC015

Decode

Destination Runways

ID Width Length Bearing (true) Bearing (mag) Surface Threshold Offset Overrun Length
11 75 ft / 23 m 4,508 ft / 1,374 m 134.22° 118.43° Asphalt 801 ft / 244 m 0 ft / 0 m
16L 75 ft / 23 m 3,000 ft / 915 m 179.56° 163.77° Asphalt 0 ft / 0 m 0 ft / 0 m
16R 151 ft / 46 m 9,404 ft / 2,867 m 179.13° 163.34° Asphalt 400 ft / 122 m 220 ft / 67 m
29 75 ft / 23 m 4,508 ft / 1,374 m 314.23° 298.44° Asphalt 0 ft / 0 m 0 ft / 0 m
34L 151 ft / 46 m 9,404 ft / 2,867 m 359.13° 343.34° Asphalt 0 ft / 0 m 404 ft / 123 m
34R 75 ft / 23 m 3,000 ft / 915 m 359.56° 343.77° Asphalt 0 ft / 0 m 0 ft / 0 m

Approach Navaids

Runway Type Ident Frequency Range Bearing (true) Bearing (mag) Slope Elevation
16R Localiser IPAE 109.30 MHz 18 nm / 33 km 179.13° 163.34° - 565 ft / 172 m (AMSL)
16R Glidescope IPAE 109.30 MHz 10 nm / 19 km 179.13° 163.34° 2.80° 562 ft / 171 m (AMSL)

Popular Alternatives